Bernard, IA

10:18 AM CDT on March 25, 2017 (GMT -0500)
Dubuque Regional | | Change Station

Elev 1076 ft 42.40 °N, 90.71 °W | Updated 25 minutes ago

Rain
Rain
37 °F
Feels Like 26 °F
N
24
Wind Variable Wind from NE
Gusts 31 mph

Today
High -- | Low -- °F
--% Chance of Precip.
Yesterday
High -- | Low -- °F
Precip. -- in
Pressure 30.00 in
Visibility 4.0 miles
Clouds Overcast 400 ft
Windchill 26 °F
Dew Point 36 °F
Humidity 96%
Rainfall 0.01 in
Snow Depth Not available.
6:57 AM 7:21 PM
Waning Crescent, 8% visible
METAR KDBQ 251453Z 05021G27KT 4SM UP BR OVC004 03/02 A2998 RMK AO2 PK WND 05028/1439 UPE1358B53 SLP158 P0000 60000 T00280022 $
Pressure 30.00 in
Visibility 4.0 miles
Clouds Overcast 400 ft
Windchill 26 °F
Dew Point 36 °F
Humidity 96%
Rainfall 0.01 in
Snow Depth Not available.
6:57 AM 7:21 PM
Waning Crescent, 8% visible
METAR KDBQ 251453Z 05021G27KT 4SM UP BR OVC004 03/02 A2998 RMK AO2 PK WND 05028/1439 UPE1358B53 SLP158 P0000 60000 T00280022 $

Get Severe Weather Alerts

Thanks for signing up!

Be on the lookout for a verification email in your inbox.

You'll start receiving the daily forecast at 8 AM.

×

10-Day Weather Forecast

Almanac

Astronomy

Mar. 25, 2017 Rise Set
Actual Time
Civil Twilight
Nautical Twilight
Astronomical Twilight
Moon
Length of Visible Light
Length of Day
Tomorrow will be .
, % of the Moon is Illuminated

Today's Extremes

State Highs State Lows

Community

WunderPhotos

Upload Photos

1,962,540 photos uploaded!

WunderBlog® & News

Nearby

Air Quality

  Air Quality AQ Index Pollutant
Not available.

Snow Depth

Station Depth Elevation

Earthquake Activity

City Distance Mag. Time & Date
Minimum magnitude displayed is 2.5.

Earthquake Activity

City Distance Mag. Time & Date
Minimum magnitude displayed is 2.5.

Coastal Water Temperatures

Place Temperature

Stations

Nearby Weather Stations

Station Location Temp. Windchill Dew Point Humidity Wind Precip. Elev Updated Type
                   

Watches & Warnings

There are currently no watches in effect.